sensor_id;sensor_type;location;lat;lon;timestamp;temperature;humidity
25616;DHT22;13482;48.234;13.006;2023-01-08T00:01:15;4.60;71.80
25616;DHT22;13482;48.234;13.006;2023-01-08T00:03:42;4.50;71.80
25616;DHT22;13482;48.234;13.006;2023-01-08T00:06:14;4.50;71.80
25616;DHT22;13482;48.234;13.006;2023-01-08T00:08:44;4.50;71.80
25616;DHT22;13482;48.234;13.006;2023-01-08T00:11:11;4.50;71.70
25616;DHT22;13482;48.234;13.006;2023-01-08T00:13:39;4.50;71.70
25616;DHT22;13482;48.234;13.006;2023-01-08T00:16:09;4.40;71.80
25616;DHT22;13482;48.234;13.006;2023-01-08T00:18:40;4.40;71.80
25616;DHT22;13482;48.234;13.006;2023-01-08T00:21:08;4.40;71.90
25616;DHT22;13482;48.234;13.006;2023-01-08T00:23:36;4.30;72.00
25616;DHT22;13482;48.234;13.006;2023-01-08T00:26:06;4.30;72.00
25616;DHT22;13482;48.234;13.006;2023-01-08T00:28:35;4.30;72.10
25616;DHT22;13482;48.234;13.006;2023-01-08T00:31:03;4.30;72.10
25616;DHT22;13482;48.234;13.006;2023-01-08T00:33:35;4.30;72.10
25616;DHT22;13482;48.234;13.006;2023-01-08T00:36:07;4.30;72.10
25616;DHT22;13482;48.234;13.006;2023-01-08T00:38:35;4.30;72.10
25616;DHT22;13482;48.234;13.006;2023-01-08T00:41:03;4.30;72.10
25616;DHT22;13482;48.234;13.006;2023-01-08T00:43:30;4.30;72.10
25616;DHT22;13482;48.234;13.006;2023-01-08T00:45:58;4.30;72.10
25616;DHT22;13482;48.234;13.006;2023-01-08T00:48:25;4.30;72.10
25616;DHT22;13482;48.234;13.006;2023-01-08T00:50:53;4.30;72.10
25616;DHT22;13482;48.234;13.006;2023-01-08T00:53:21;4.30;72.20
25616;DHT22;13482;48.234;13.006;2023-01-08T00:55:48;4.30;72.20
25616;DHT22;13482;48.234;13.006;2023-01-08T00:58:16;4.30;72.20
25616;DHT22;13482;48.234;13.006;2023-01-08T01:00:43;4.30;72.40
25616;DHT22;13482;48.234;13.006;2023-01-08T01:03:10;4.30;72.40
25616;DHT22;13482;48.234;13.006;2023-01-08T01:05:37;4.30;72.40
25616;DHT22;13482;48.234;13.006;2023-01-08T01:08:04;4.30;72.20
25616;DHT22;13482;48.234;13.006;2023-01-08T01:10:31;4.30;72.40
25616;DHT22;13482;48.234;13.006;2023-01-08T01:12:59;4.30;72.40
25616;DHT22;13482;48.234;13.006;2023-01-08T01:15:26;4.30;72.20
25616;DHT22;13482;48.234;13.006;2023-01-08T01:17:53;4.30;72.20
25616;DHT22;13482;48.234;13.006;2023-01-08T01:20:20;4.30;72.20
25616;DHT22;13482;48.234;13.006;2023-01-08T01:22:49;4.30;72.20
25616;DHT22;13482;48.234;13.006;2023-01-08T01:25:16;4.30;72.20
25616;DHT22;13482;48.234;13.006;2023-01-08T01:27:43;4.30;72.20
25616;DHT22;13482;48.234;13.006;2023-01-08T01:30:11;4.30;72.20
25616;DHT22;13482;48.234;13.006;2023-01-08T01:32:38;4.30;72.20
25616;DHT22;13482;48.234;13.006;2023-01-08T01:35:06;4.30;72.20
25616;DHT22;13482;48.234;13.006;2023-01-08T01:37:33;4.30;72.20
25616;DHT22;13482;48.234;13.006;2023-01-08T01:40:01;4.30;72.10
25616;DHT22;13482;48.234;13.006;2023-01-08T01:42:28;4.30;72.10
25616;DHT22;13482;48.234;13.006;2023-01-08T01:45:24;4.30;72.10
25616;DHT22;13482;48.234;13.006;2023-01-08T01:48:08;4.30;72.00
25616;DHT22;13482;48.234;13.006;2023-01-08T01:50:47;4.30;71.90
25616;DHT22;13482;48.234;13.006;2023-01-08T01:56:03;4.20;71.80
25616;DHT22;13482;48.234;13.006;2023-01-08T01:58:31;4.20;71.80
25616;DHT22;13482;48.234;13.006;2023-01-08T02:01:04;4.10;72.00
25616;DHT22;13482;48.234;13.006;2023-01-08T02:03:35;4.10;72.00
25616;DHT22;13482;48.234;13.006;2023-01-08T02:11:45;4.10;72.20
25616;DHT22;13482;48.234;13.006;2023-01-08T02:20:29;4.10;72.30
25616;DHT22;13482;48.234;13.006;2023-01-08T02:31:17;4.10;72.50
25616;DHT22;13482;48.234;13.006;2023-01-08T02:33:45;4.10;72.60
25616;DHT22;13482;48.234;13.006;2023-01-08T02:36:54;4.10;72.70
25616;DHT22;13482;48.234;13.006;2023-01-08T02:45:05;4.10;72.80
25616;DHT22;13482;48.234;13.006;2023-01-08T02:47:38;4.10;73.00
25616;DHT22;13482;48.234;13.006;2023-01-08T02:55:42;4.20;73.10
25616;DHT22;13482;48.234;13.006;2023-01-08T02:58:13;4.20;72.90
25616;DHT22;13482;48.234;13.006;2023-01-08T03:00:42;4.20;73.00
25616;DHT22;13482;48.234;13.006;2023-01-08T03:03:19;4.20;73.10
25616;DHT22;13482;48.234;13.006;2023-01-08T03:05:55;4.20;73.10
25616;DHT22;13482;48.234;13.006;2023-01-08T03:08:25;4.20;73.10
25616;DHT22;13482;48.234;13.006;2023-01-08T03:11:07;4.30;73.10
25616;DHT22;13482;48.234;13.006;2023-01-08T03:13:47;4.30;73.10
25616;DHT22;13482;48.234;13.006;2023-01-08T03:16:22;4.30;73.10
25616;DHT22;13482;48.234;13.006;2023-01-08T03:18:55;4.30;73.10
25616;DHT22;13482;48.234;13.006;2023-01-08T03:21:26;4.30;73.10
25616;DHT22;13482;48.234;13.006;2023-01-08T03:23:53;4.30;73.20
25616;DHT22;13482;48.234;13.006;2023-01-08T03:26:23;4.40;73.20
25616;DHT22;13482;48.234;13.006;2023-01-08T03:28:53;4.40;73.20
25616;DHT22;13482;48.234;13.006;2023-01-08T03:31:23;4.40;73.30
25616;DHT22;13482;48.234;13.006;2023-01-08T03:33:53;4.50;73.30
25616;DHT22;13482;48.234;13.006;2023-01-08T03:36:24;4.50;73.30
25616;DHT22;13482;48.234;13.006;2023-01-08T03:41:26;4.50;73.20
25616;DHT22;13482;48.234;13.006;2023-01-08T03:43:56;4.50;73.20
25616;DHT22;13482;48.234;13.006;2023-01-08T03:46:30;4.60;73.20
25616;DHT22;13482;48.234;13.006;2023-01-08T03:49:00;4.60;73.30
25616;DHT22;13482;48.234;13.006;2023-01-08T03:51:27;4.60;73.20
25616;DHT22;13482;48.234;13.006;2023-01-08T03:53:57;4.60;73.10
25616;DHT22;13482;48.234;13.006;2023-01-08T03:56:24;4.60;73.10
25616;DHT22;13482;48.234;13.006;2023-01-08T03:58:51;4.60;73.10
25616;DHT22;13482;48.234;13.006;2023-01-08T04:01:18;4.60;73.00
25616;DHT22;13482;48.234;13.006;2023-01-08T04:03:46;4.60;73.00
25616;DHT22;13482;48.234;13.006;2023-01-08T04:06:13;4.60;73.00
25616;DHT22;13482;48.234;13.006;2023-01-08T04:08:40;4.60;73.10
25616;DHT22;13482;48.234;13.006;2023-01-08T04:11:07;4.60;73.10
25616;DHT22;13482;48.234;13.006;2023-01-08T04:13:34;4.60;73.10
25616;DHT22;13482;48.234;13.006;2023-01-08T04:16:01;4.60;73.20
25616;DHT22;13482;48.234;13.006;2023-01-08T04:18:29;4.60;73.20
25616;DHT22;13482;48.234;13.006;2023-01-08T04:20:56;4.60;73.20
25616;DHT22;13482;48.234;13.006;2023-01-08T04:23:23;4.60;73.10
25616;DHT22;13482;48.234;13.006;2023-01-08T04:25:51;4.60;73.20
25616;DHT22;13482;48.234;13.006;2023-01-08T04:28:19;4.60;73.20
25616;DHT22;13482;48.234;13.006;2023-01-08T04:30:47;4.70;73.30
25616;DHT22;13482;48.234;13.006;2023-01-08T04:33:14;4.70;73.30
25616;DHT22;13482;48.234;13.006;2023-01-08T04:35:41;4.70;73.20
25616;DHT22;13482;48.234;13.006;2023-01-08T04:38:08;4.70;73.30
25616;DHT22;13482;48.234;13.006;2023-01-08T04:40:37;4.70;73.30
25616;DHT22;13482;48.234;13.006;2023-01-08T04:43:04;4.70;73.30
25616;DHT22;13482;48.234;13.006;2023-01-08T04:45:31;4.70;73.30
25616;DHT22;13482;48.234;13.006;2023-01-08T04:47:59;4.70;73.30
25616;DHT22;13482;48.234;13.006;2023-01-08T04:50:26;4.70;73.30
25616;DHT22;13482;48.234;13.006;2023-01-08T04:52:53;4.70;73.30
25616;DHT22;13482;48.234;13.006;2023-01-08T04:55:20;4.70;73.30
25616;DHT22;13482;48.234;13.006;2023-01-08T04:57:48;4.70;73.20
25616;DHT22;13482;48.234;13.006;2023-01-08T05:00:15;4.70;73.20
25616;DHT22;13482;48.234;13.006;2023-01-08T05:02:43;4.70;73.20
25616;DHT22;13482;48.234;13.006;2023-01-08T05:05:10;4.70;73.10
25616;DHT22;13482;48.234;13.006;2023-01-08T05:07:37;4.70;73.20
25616;DHT22;13482;48.234;13.006;2023-01-08T05:10:05;4.70;73.10
25616;DHT22;13482;48.234;13.006;2023-01-08T05:12:32;4.70;73.10
25616;DHT22;13482;48.234;13.006;2023-01-08T05:15:00;4.70;73.10
25616;DHT22;13482;48.234;13.006;2023-01-08T05:17:27;4.60;73.10
25616;DHT22;13482;48.234;13.006;2023-01-08T05:19:54;4.60;73.00
25616;DHT22;13482;48.234;13.006;2023-01-08T05:22:21;4.60;73.10
25616;DHT22;13482;48.234;13.006;2023-01-08T05:24:48;4.60;73.20
25616;DHT22;13482;48.234;13.006;2023-01-08T05:27:15;4.60;73.20
25616;DHT22;13482;48.234;13.006;2023-01-08T05:29:43;4.50;73.20
25616;DHT22;13482;48.234;13.006;2023-01-08T05:32:15;4.50;73.20
25616;DHT22;13482;48.234;13.006;2023-01-08T05:34:43;4.50;73.30
25616;DHT22;13482;48.234;13.006;2023-01-08T05:37:11;4.50;73.30
25616;DHT22;13482;48.234;13.006;2023-01-08T05:39:38;4.50;73.40
25616;DHT22;13482;48.234;13.006;2023-01-08T05:42:05;4.50;73.40
25616;DHT22;13482;48.234;13.006;2023-01-08T05:44:32;4.50;73.50
25616;DHT22;13482;48.234;13.006;2023-01-08T05:46:59;4.50;73.50
25616;DHT22;13482;48.234;13.006;2023-01-08T05:49:26;4.50;73.50
25616;DHT22;13482;48.234;13.006;2023-01-08T05:51:53;4.50;73.50
25616;DHT22;13482;48.234;13.006;2023-01-08T05:54:20;4.50;73.50
25616;DHT22;13482;48.234;13.006;2023-01-08T05:56:47;4.50;73.60
25616;DHT22;13482;48.234;13.006;2023-01-08T05:59:14;4.50;73.60
25616;DHT22;13482;48.234;13.006;2023-01-08T06:01:41;4.50;73.60
25616;DHT22;13482;48.234;13.006;2023-01-08T06:04:09;4.50;73.70
25616;DHT22;13482;48.234;13.006;2023-01-08T06:06:36;4.50;73.70
25616;DHT22;13482;48.234;13.006;2023-01-08T06:09:03;4.50;73.60
25616;DHT22;13482;48.234;13.006;2023-01-08T06:11:30;4.50;73.60
25616;DHT22;13482;48.234;13.006;2023-01-08T06:13:57;4.60;73.60
25616;DHT22;13482;48.234;13.006;2023-01-08T06:16:24;4.60;73.60
25616;DHT22;13482;48.234;13.006;2023-01-08T06:18:51;4.60;73.60
25616;DHT22;13482;48.234;13.006;2023-01-08T06:21:18;4.60;73.50
25616;DHT22;13482;48.234;13.006;2023-01-08T06:23:46;4.60;73.50
25616;DHT22;13482;48.234;13.006;2023-01-08T06:26:13;4.50;73.40
25616;DHT22;13482;48.234;13.006;2023-01-08T06:28:40;4.50;73.40
25616;DHT22;13482;48.234;13.006;2023-01-08T06:31:07;4.40;73.50
25616;DHT22;13482;48.234;13.006;2023-01-08T06:33:34;4.40;73.50
25616;DHT22;13482;48.234;13.006;2023-01-08T06:36:03;4.40;73.50
25616;DHT22;13482;48.234;13.006;2023-01-08T06:38:32;4.40;73.50
25616;DHT22;13482;48.234;13.006;2023-01-08T06:41:08;4.40;73.50
25616;DHT22;13482;48.234;13.006;2023-01-08T06:43:37;4.40;73.60
25616;DHT22;13482;48.234;13.006;2023-01-08T06:46:05;4.30;73.70
25616;DHT22;13482;48.234;13.006;2023-01-08T06:48:34;4.40;73.70
25616;DHT22;13482;48.234;13.006;2023-01-08T06:51:02;4.40;73.70
25616;DHT22;13482;48.234;13.006;2023-01-08T06:53:31;4.40;73.80
25616;DHT22;13482;48.234;13.006;2023-01-08T06:55:58;4.40;73.80
25616;DHT22;13482;48.234;13.006;2023-01-08T06:58:26;4.40;73.80
25616;DHT22;13482;48.234;13.006;2023-01-08T07:00:54;4.40;73.80
25616;DHT22;13482;48.234;13.006;2023-01-08T07:03:21;4.40;73.80
25616;DHT22;13482;48.234;13.006;2023-01-08T07:05:48;4.40;73.80
25616;DHT22;13482;48.234;13.006;2023-01-08T07:08:17;4.40;73.80
25616;DHT22;13482;48.234;13.006;2023-01-08T07:10:44;4.50;73.80
25616;DHT22;13482;48.234;13.006;2023-01-08T07:13:11;4.50;73.80
25616;DHT22;13482;48.234;13.006;2023-01-08T07:15:39;4.50;73.80
25616;DHT22;13482;48.234;13.006;2023-01-08T07:18:09;4.50;73.80
25616;DHT22;13482;48.234;13.006;2023-01-08T07:20:37;4.50;73.70
25616;DHT22;13482;48.234;13.006;2023-01-08T07:23:07;4.40;73.70
25616;DHT22;13482;48.234;13.006;2023-01-08T07:25:35;4.40;73.70
25616;DHT22;13482;48.234;13.006;2023-01-08T07:28:02;4.30;73.80
25616;DHT22;13482;48.234;13.006;2023-01-08T07:30:29;4.30;73.80
25616;DHT22;13482;48.234;13.006;2023-01-08T07:32:58;4.30;73.90
25616;DHT22;13482;48.234;13.006;2023-01-08T07:35:26;4.30;74.00
25616;DHT22;13482;48.234;13.006;2023-01-08T07:37:53;4.30;74.10
25616;DHT22;13482;48.234;13.006;2023-01-08T07:40:20;4.30;74.20
25616;DHT22;13482;48.234;13.006;2023-01-08T07:42:55;4.30;74.20
25616;DHT22;13482;48.234;13.006;2023-01-08T07:45:24;4.30;74.30
25616;DHT22;13482;48.234;13.006;2023-01-08T07:47:51;4.30;74.20
25616;DHT22;13482;48.234;13.006;2023-01-08T07:50:18;4.40;74.30
25616;DHT22;13482;48.234;13.006;2023-01-08T07:52:45;4.40;74.30
25616;DHT22;13482;48.234;13.006;2023-01-08T07:55:13;4.40;74.40
25616;DHT22;13482;48.234;13.006;2023-01-08T07:57:40;4.50;74.20
25616;DHT22;13482;48.234;13.006;2023-01-08T08:00:07;4.50;74.20
25616;DHT22;13482;48.234;13.006;2023-01-08T08:02:35;4.50;74.20
25616;DHT22;13482;48.234;13.006;2023-01-08T08:05:03;4.50;74.20
25616;DHT22;13482;48.234;13.006;2023-01-08T08:07:30;4.50;74.20
25616;DHT22;13482;48.234;13.006;2023-01-08T08:09:58;4.50;74.20
25616;DHT22;13482;48.234;13.006;2023-01-08T08:12:25;4.50;74.20
25616;DHT22;13482;48.234;13.006;2023-01-08T08:14:52;4.50;74.20
25616;DHT22;13482;48.234;13.006;2023-01-08T08:17:19;4.50;74.20
25616;DHT22;13482;48.234;13.006;2023-01-08T08:19:46;4.50;74.20
25616;DHT22;13482;48.234;13.006;2023-01-08T08:22:13;4.50;74.20
25616;DHT22;13482;48.234;13.006;2023-01-08T08:24:40;4.50;74.30
25616;DHT22;13482;48.234;13.006;2023-01-08T08:27:07;4.50;74.30
25616;DHT22;13482;48.234;13.006;2023-01-08T08:29:34;4.50;74.50
25616;DHT22;13482;48.234;13.006;2023-01-08T08:32:01;4.50;74.50
25616;DHT22;13482;48.234;13.006;2023-01-08T08:34:28;4.50;74.70
25616;DHT22;13482;48.234;13.006;2023-01-08T08:36:55;4.50;74.70
25616;DHT22;13482;48.234;13.006;2023-01-08T08:39:22;4.60;74.80
25616;DHT22;13482;48.234;13.006;2023-01-08T08:41:49;4.60;74.80
25616;DHT22;13482;48.234;13.006;2023-01-08T08:44:16;4.70;74.90
25616;DHT22;13482;48.234;13.006;2023-01-08T08:46:43;4.80;74.90
25616;DHT22;13482;48.234;13.006;2023-01-08T08:49:10;4.80;74.80
25616;DHT22;13482;48.234;13.006;2023-01-08T08:51:37;4.90;74.80
25616;DHT22;13482;48.234;13.006;2023-01-08T08:54:04;4.90;74.80
25616;DHT22;13482;48.234;13.006;2023-01-08T08:56:31;5.00;74.80
25616;DHT22;13482;48.234;13.006;2023-01-08T08:58:58;5.00;74.90
25616;DHT22;13482;48.234;13.006;2023-01-08T09:01:26;5.10;74.90
25616;DHT22;13482;48.234;13.006;2023-01-08T09:03:53;5.10;74.90
25616;DHT22;13482;48.234;13.006;2023-01-08T09:06:20;5.20;74.90
25616;DHT22;13482;48.234;13.006;2023-01-08T09:08:47;5.20;74.80
25616;DHT22;13482;48.234;13.006;2023-01-08T09:11:15;5.20;74.80
25616;DHT22;13482;48.234;13.006;2023-01-08T09:13:42;5.30;74.90
25616;DHT22;13482;48.234;13.006;2023-01-08T09:16:09;5.30;74.80
25616;DHT22;13482;48.234;13.006;2023-01-08T09:18:36;5.30;74.80
25616;DHT22;13482;48.234;13.006;2023-01-08T09:21:04;5.40;74.80
25616;DHT22;13482;48.234;13.006;2023-01-08T09:23:33;5.40;74.90
25616;DHT22;13482;48.234;13.006;2023-01-08T09:26:01;5.40;74.90
25616;DHT22;13482;48.234;13.006;2023-01-08T09:28:30;5.40;74.80
25616;DHT22;13482;48.234;13.006;2023-01-08T09:31:02;5.50;74.70
25616;DHT22;13482;48.234;13.006;2023-01-08T09:33:30;5.50;74.80
25616;DHT22;13482;48.234;13.006;2023-01-08T09:35:57;5.60;74.80
25616;DHT22;13482;48.234;13.006;2023-01-08T09:38:24;5.60;74.80
25616;DHT22;13482;48.234;13.006;2023-01-08T09:41:09;5.60;74.80
25616;DHT22;13482;48.234;13.006;2023-01-08T09:43:41;5.70;74.80
25616;DHT22;13482;48.234;13.006;2023-01-08T09:46:11;5.70;74.70
25616;DHT22;13482;48.234;13.006;2023-01-08T09:48:41;5.70;74.80
25616;DHT22;13482;48.234;13.006;2023-01-08T09:51:13;5.70;74.80
25616;DHT22;13482;48.234;13.006;2023-01-08T09:53:42;5.80;74.80
25616;DHT22;13482;48.234;13.006;2023-01-08T09:56:15;5.80;74.80
25616;DHT22;13482;48.234;13.006;2023-01-08T09:58:44;5.80;74.80
25616;DHT22;13482;48.234;13.006;2023-01-08T10:01:20;5.80;74.80
25616;DHT22;13482;48.234;13.006;2023-01-08T10:04:04;5.90;74.70
25616;DHT22;13482;48.234;13.006;2023-01-08T10:06:33;5.90;74.60
25616;DHT22;13482;48.234;13.006;2023-01-08T10:09:00;5.90;74.60
25616;DHT22;13482;48.234;13.006;2023-01-08T10:11:36;5.90;74.70
25616;DHT22;13482;48.234;13.006;2023-01-08T10:14:20;6.00;74.80
25616;DHT22;13482;48.234;13.006;2023-01-08T10:17:04;6.00;74.60
25616;DHT22;13482;48.234;13.006;2023-01-08T10:19:37;6.10;74.60
25616;DHT22;13482;48.234;13.006;2023-01-08T10:22:14;6.10;74.50
25616;DHT22;13482;48.234;13.006;2023-01-08T10:24:50;6.10;74.50
25616;DHT22;13482;48.234;13.006;2023-01-08T10:27:22;6.20;74.40
25616;DHT22;13482;48.234;13.006;2023-01-08T10:29:50;6.20;74.40
25616;DHT22;13482;48.234;13.006;2023-01-08T10:32:25;6.20;74.30
25616;DHT22;13482;48.234;13.006;2023-01-08T10:34:55;6.20;74.10
25616;DHT22;13482;48.234;13.006;2023-01-08T10:37:27;6.20;74.10
25616;DHT22;13482;48.234;13.006;2023-01-08T10:40:04;6.20;74.10
25616;DHT22;13482;48.234;13.006;2023-01-08T10:42:56;6.20;74.10
25616;DHT22;13482;48.234;13.006;2023-01-08T10:45:31;6.20;74.20
25616;DHT22;13482;48.234;13.006;2023-01-08T10:48:02;6.20;74.40
25616;DHT22;13482;48.234;13.006;2023-01-08T10:50:32;6.30;74.60
25616;DHT22;13482;48.234;13.006;2023-01-08T10:53:04;6.30;74.70
25616;DHT22;13482;48.234;13.006;2023-01-08T10:55:34;6.40;74.80
25616;DHT22;13482;48.234;13.006;2023-01-08T10:58:14;6.40;74.90
25616;DHT22;13482;48.234;13.006;2023-01-08T11:00:41;6.50;75.00
25616;DHT22;13482;48.234;13.006;2023-01-08T11:03:40;6.60;75.00
25616;DHT22;13482;48.234;13.006;2023-01-08T11:06:12;6.70;75.20
25616;DHT22;13482;48.234;13.006;2023-01-08T11:08:54;6.80;75.10
25616;DHT22;13482;48.234;13.006;2023-01-08T11:11:30;6.90;75.00
25616;DHT22;13482;48.234;13.006;2023-01-08T11:14:01;6.90;74.80
25616;DHT22;13482;48.234;13.006;2023-01-08T11:16:39;7.00;74.70
25616;DHT22;13482;48.234;13.006;2023-01-08T11:24:35;7.10;74.30
25616;DHT22;13482;48.234;13.006;2023-01-08T11:32:54;7.20;74.40
25616;DHT22;13482;48.234;13.006;2023-01-08T11:35:30;7.20;74.50
25616;DHT22;13482;48.234;13.006;2023-01-08T11:38:03;7.30;74.30
25616;DHT22;13482;48.234;13.006;2023-01-08T11:43:39;7.40;74.50
25616;DHT22;13482;48.234;13.006;2023-01-08T11:46:57;7.40;74.70
25616;DHT22;13482;48.234;13.006;2023-01-08T11:52:57;7.60;74.40
25616;DHT22;13482;48.234;13.006;2023-01-08T11:59:07;7.70;74.30
25616;DHT22;13482;48.234;13.006;2023-01-08T12:02:23;7.80;74.20
25616;DHT22;13482;48.234;13.006;2023-01-08T12:09:17;7.90;74.10
25616;DHT22;13482;48.234;13.006;2023-01-08T12:11:35;7.90;73.80
25616;DHT22;13482;48.234;13.006;2023-01-08T12:34:51;8.10;73.30
25616;DHT22;13482;48.234;13.006;2023-01-08T12:40:23;8.10;73.20
25616;DHT22;13482;48.234;13.006;2023-01-08T12:42:54;8.10;73.20
25616;DHT22;13482;48.234;13.006;2023-01-08T12:45:29;8.10;73.10
25616;DHT22;13482;48.234;13.006;2023-01-08T12:48:21;8.10;73.10
25616;DHT22;13482;48.234;13.006;2023-01-08T13:07:51;8.10;73.30
25616;DHT22;13482;48.234;13.006;2023-01-08T13:10:48;8.10;73.30
25616;DHT22;13482;48.234;13.006;2023-01-08T13:18:51;8.20;73.40
25616;DHT22;13482;48.234;13.006;2023-01-08T13:21:35;8.20;73.40
25616;DHT22;13482;48.234;13.006;2023-01-08T13:29:48;8.30;73.50
25616;DHT22;13482;48.234;13.006;2023-01-08T13:32:25;8.30;73.40
25616;DHT22;13482;48.234;13.006;2023-01-08T13:37:47;8.40;73.10
25616;DHT22;13482;48.234;13.006;2023-01-08T13:43:20;8.30;73.00
25616;DHT22;13482;48.234;13.006;2023-01-08T13:48:29;8.30;72.80
25616;DHT22;13482;48.234;13.006;2023-01-08T13:51:00;8.30;72.80
25616;DHT22;13482;48.234;13.006;2023-01-08T13:53:27;8.20;72.70
25616;DHT22;13482;48.234;13.006;2023-01-08T13:56:04;8.20;72.80
25616;DHT22;13482;48.234;13.006;2023-01-08T13:58:41;8.20;72.80
25616;DHT22;13482;48.234;13.006;2023-01-08T14:01:11;8.10;72.80
25616;DHT22;13482;48.234;13.006;2023-01-08T14:03:45;8.10;72.70
25616;DHT22;13482;48.234;13.006;2023-01-08T14:06:26;8.10;72.70
25616;DHT22;13482;48.234;13.006;2023-01-08T14:08:59;8.10;72.80
25616;DHT22;13482;48.234;13.006;2023-01-08T14:11:44;8.00;72.70
25616;DHT22;13482;48.234;13.006;2023-01-08T14:14:13;8.00;72.90
25616;DHT22;13482;48.234;13.006;2023-01-08T14:16:43;7.90;72.70
25616;DHT22;13482;48.234;13.006;2023-01-08T14:19:23;7.90;72.80
25616;DHT22;13482;48.234;13.006;2023-01-08T14:21:57;7.90;72.90
25616;DHT22;13482;48.234;13.006;2023-01-08T14:24:25;7.90;72.90
25616;DHT22;13482;48.234;13.006;2023-01-08T14:26:54;7.80;72.90
25616;DHT22;13482;48.234;13.006;2023-01-08T14:29:27;7.80;72.90
25616;DHT22;13482;48.234;13.006;2023-01-08T14:31:58;7.80;72.90
25616;DHT22;13482;48.234;13.006;2023-01-08T14:34:29;7.70;72.90
25616;DHT22;13482;48.234;13.006;2023-01-08T14:36:56;7.70;72.90
25616;DHT22;13482;48.234;13.006;2023-01-08T14:39:25;7.70;72.90
25616;DHT22;13482;48.234;13.006;2023-01-08T14:45:30;7.60;73.00
25616;DHT22;13482;48.234;13.006;2023-01-08T14:48:20;7.60;72.90
25616;DHT22;13482;48.234;13.006;2023-01-08T14:51:06;7.50;73.10
25616;DHT22;13482;48.234;13.006;2023-01-08T14:53:37;7.50;73.10
25616;DHT22;13482;48.234;13.006;2023-01-08T14:56:12;7.50;73.10
25616;DHT22;13482;48.234;13.006;2023-01-08T14:58:43;7.40;73.20
25616;DHT22;13482;48.234;13.006;2023-01-08T15:01:19;7.40;73.20
25616;DHT22;13482;48.234;13.006;2023-01-08T15:03:50;7.40;73.30
25616;DHT22;13482;48.234;13.006;2023-01-08T15:06:27;7.40;73.30
25616;DHT22;13482;48.234;13.006;2023-01-08T15:08:55;7.40;73.40
25616;DHT22;13482;48.234;13.006;2023-01-08T15:11:31;7.30;73.40
25616;DHT22;13482;48.234;13.006;2023-01-08T15:14:11;7.30;73.50
25616;DHT22;13482;48.234;13.006;2023-01-08T15:16:40;7.30;73.60
25616;DHT22;13482;48.234;13.006;2023-01-08T15:19:16;7.30;73.60
25616;DHT22;13482;48.234;13.006;2023-01-08T15:21:49;7.30;73.60
25616;DHT22;13482;48.234;13.006;2023-01-08T15:24:35;7.40;73.70
25616;DHT22;13482;48.234;13.006;2023-01-08T15:27:06;7.40;73.70
25616;DHT22;13482;48.234;13.006;2023-01-08T15:29:38;7.40;73.70
25616;DHT22;13482;48.234;13.006;2023-01-08T15:34:43;7.40;73.80
25616;DHT22;13482;48.234;13.006;2023-01-08T15:37:12;7.40;73.80
25616;DHT22;13482;48.234;13.006;2023-01-08T15:39:41;7.40;73.80
25616;DHT22;13482;48.234;13.006;2023-01-08T15:42:16;7.40;73.80
25616;DHT22;13482;48.234;13.006;2023-01-08T15:45:20;7.40;73.80
25616;DHT22;13482;48.234;13.006;2023-01-08T15:47:48;7.40;73.80
25616;DHT22;13482;48.234;13.006;2023-01-08T15:50:15;7.40;73.80
25616;DHT22;13482;48.234;13.006;2023-01-08T15:52:42;7.40;74.00
25616;DHT22;13482;48.234;13.006;2023-01-08T15:55:21;7.40;74.00
25616;DHT22;13482;48.234;13.006;2023-01-08T15:57:49;7.40;74.10
25616;DHT22;13482;48.234;13.006;2023-01-08T16:00:18;7.40;74.00
25616;DHT22;13482;48.234;13.006;2023-01-08T16:02:47;7.40;74.00
25616;DHT22;13482;48.234;13.006;2023-01-08T16:05:17;7.40;74.00
25616;DHT22;13482;48.234;13.006;2023-01-08T16:07:45;7.40;74.00
25616;DHT22;13482;48.234;13.006;2023-01-08T16:10:15;7.40;74.00
25616;DHT22;13482;48.234;13.006;2023-01-08T16:12:42;7.40;74.00
25616;DHT22;13482;48.234;13.006;2023-01-08T16:15:10;7.40;74.00
25616;DHT22;13482;48.234;13.006;2023-01-08T16:17:39;7.40;74.00
25616;DHT22;13482;48.234;13.006;2023-01-08T16:20:07;7.40;74.10
25616;DHT22;13482;48.234;13.006;2023-01-08T16:22:35;7.40;74.00
25616;DHT22;13482;48.234;13.006;2023-01-08T16:25:03;7.50;73.90
25616;DHT22;13482;48.234;13.006;2023-01-08T16:27:31;7.40;74.00
25616;DHT22;13482;48.234;13.006;2023-01-08T16:29:59;7.40;74.00
25616;DHT22;13482;48.234;13.006;2023-01-08T16:32:26;7.40;74.10
25616;DHT22;13482;48.234;13.006;2023-01-08T16:34:53;7.40;74.10
25616;DHT22;13482;48.234;13.006;2023-01-08T16:37:21;7.40;74.10
25616;DHT22;13482;48.234;13.006;2023-01-08T16:39:48;7.40;74.20
25616;DHT22;13482;48.234;13.006;2023-01-08T16:42:15;7.40;74.20
25616;DHT22;13482;48.234;13.006;2023-01-08T16:44:42;7.40;74.20
25616;DHT22;13482;48.234;13.006;2023-01-08T16:47:09;7.40;74.20
25616;DHT22;13482;48.234;13.006;2023-01-08T16:49:36;7.40;74.20
25616;DHT22;13482;48.234;13.006;2023-01-08T16:52:07;7.40;74.20
25616;DHT22;13482;48.234;13.006;2023-01-08T16:54:35;7.40;74.30
25616;DHT22;13482;48.234;13.006;2023-01-08T16:57:03;7.40;74.30
25616;DHT22;13482;48.234;13.006;2023-01-08T16:59:30;7.40;74.30
25616;DHT22;13482;48.234;13.006;2023-01-08T17:01:59;7.40;74.40
25616;DHT22;13482;48.234;13.006;2023-01-08T17:04:28;7.40;74.40
25616;DHT22;13482;48.234;13.006;2023-01-08T17:06:56;7.40;74.40
25616;DHT22;13482;48.234;13.006;2023-01-08T17:09:24;7.30;74.40
25616;DHT22;13482;48.234;13.006;2023-01-08T17:11:51;7.30;74.40
25616;DHT22;13482;48.234;13.006;2023-01-08T17:14:19;7.30;74.40
25616;DHT22;13482;48.234;13.006;2023-01-08T17:16:46;7.30;74.50
25616;DHT22;13482;48.234;13.006;2023-01-08T17:19:14;7.30;74.50
25616;DHT22;13482;48.234;13.006;2023-01-08T17:21:43;7.30;74.40
25616;DHT22;13482;48.234;13.006;2023-01-08T17:24:11;7.30;74.40
25616;DHT22;13482;48.234;13.006;2023-01-08T17:26:38;7.30;74.40
25616;DHT22;13482;48.234;13.006;2023-01-08T17:29:05;7.30;74.40
25616;DHT22;13482;48.234;13.006;2023-01-08T17:31:33;7.30;74.40
25616;DHT22;13482;48.234;13.006;2023-01-08T17:34:07;7.30;74.30
25616;DHT22;13482;48.234;13.006;2023-01-08T17:36:38;7.20;74.30
25616;DHT22;13482;48.234;13.006;2023-01-08T17:39:06;7.20;74.20
25616;DHT22;13482;48.234;13.006;2023-01-08T17:41:36;7.20;74.20
25616;DHT22;13482;48.234;13.006;2023-01-08T17:44:25;7.10;74.20
25616;DHT22;13482;48.234;13.006;2023-01-08T17:46:53;7.10;74.10
25616;DHT22;13482;48.234;13.006;2023-01-08T17:49:20;7.10;74.00
25616;DHT22;13482;48.234;13.006;2023-01-08T17:51:47;7.00;74.00
25616;DHT22;13482;48.234;13.006;2023-01-08T17:54:15;7.00;74.00
25616;DHT22;13482;48.234;13.006;2023-01-08T17:56:43;6.90;74.00
25616;DHT22;13482;48.234;13.006;2023-01-08T17:59:14;6.90;74.00